首页
METAR-TAF:

METAR-TAF

机场 :

Smithers, 不列颠哥伦比亚, 加拿大

纬度: 54-49N, 经度: 127-11W, 海拔: 523米

当前天气观测

该预报发布于53分钟前的01:00 UTC
风速11节,风向西南
温度 11°C
湿度 35%
气压 1015 hPa
能見度: 40.2公里
多云层高于6000英尺

METAR: CYYD 080100Z 23011KT 25SM BKN060 11/M04 A2998 RMK SC6 SLP166

时间: 18:53 (01:53 UTC)

预报

该预报发布于1小时和15分钟前的00:38 UTC
预报有效从08日的 01点(UTC)到 08日的 06点(UTC)
风速6节,风向
能見度: 10公里
多云层高于6000英尺
从 08日的 0400点(UTC)
风速6节,风向西北
能見度: 10公里
多云层高于4000英尺

TAF: CYYD 080038Z 0801/0806 36006KT P6SM BKN060 FM080400 32006KT P6SM BKN040 RMK NXT FCST WILL BE ISSUED AT 081345Z

超过4000个机场的气象观测和天气预报(METAR&TAF报告)。

可查询的气象台以黄色和红色小点在地图上表示。

将鼠标移到小点上方,可查看气象台名称。

然后点击查看天气观测和预报。

如需切换地图:点击带黑十字的绿色按钮放大地图;点击带横线的绿色按钮缩小地图;或者点击绿色箭头查看邻近地区的地图。


METAR-TAF: